Time;durP1;ratioP1;P1;durP2;ratioP2;P2;SDS_P1;SDS_P2;PMS_P1;PMS_P2;Temp;Humidity;BMP_temperature;BMP_pressure;BME280_temperature;BME280_humidity;BME280_pressure;Samples;Min_cycle;Max_cycle;Signal;HPM_P1;HPM_P2
2022/04/08 00:01:17;;;;;;;;;2.00;2.00;;;;;10.91;92.28;98858.06;4770251;29;45366;-76
2022/04/08 00:03:42;;;;;;;;;1.50;1.50;;;;;10.93;92.15;98857.06;4770734;29;45366;-77
2022/04/08 00:06:08;;;;;;;;;3.50;3.00;;;;;10.94;92.21;98858.78;4770815;29;45495;-77
2022/04/08 00:08:34;;;;;;;;;2.00;2.00;;;;;10.92;92.08;98855.34;4766909;29;45431;-76
2022/04/08 00:11:00;;;;;;;;;0.00;0.00;;;;;10.91;92.33;98852.78;4769286;29;46425;-76
2022/04/08 00:13:26;;;;;;;;;1.00;0.00;;;;;10.89;92.63;98846.75;4767714;29;45460;-76
2022/04/08 00:15:51;;;;;;;;;2.00;2.00;;;;;10.88;92.78;98839.75;4768147;29;45652;-76
2022/04/08 00:18:17;;;;;;;;;2.00;2.00;;;;;10.87;93.29;98836.28;4770852;29;45401;-76
2022/04/08 00:20:43;;;;;;;;;2.00;2.00;;;;;10.90;92.83;98836.09;4770245;29;46363;-76
2022/04/08 00:23:08;;;;;;;;;1.00;1.00;;;;;10.90;92.50;98836.09;4770594;29;45472;-76
2022/04/08 00:25:33;;;;;;;;;3.00;2.00;;;;;10.91;92.90;98829.03;4768463;29;45606;-74
2022/04/08 00:27:59;;;;;;;;;0.25;0.25;;;;;10.92;92.68;98822.84;4770455;29;45310;-76
2022/04/08 00:30:24;;;;;;;;;1.25;1.25;;;;;10.93;92.46;98824.56;4770196;29;45928;-76
2022/04/08 00:32:51;;;;;;;;;0.00;0.00;;;;;10.96;92.12;98816.50;4770638;29;45446;-76
2022/04/08 00:35:17;;;;;;;;;2.50;2.00;;;;;10.97;92.67;98812.94;4768728;29;45393;-76
2022/04/08 00:37:42;;;;;;;;;4.00;2.50;;;;;10.99;93.09;98816.38;4770463;29;45543;-76
2022/04/08 00:40:09;;;;;;;;;1.00;1.00;;;;;11.00;92.76;98818.09;4781980;29;48056;-77
2022/04/08 00:42:36;;;;;;;;;1.60;1.00;;;;;10.99;92.70;98806.69;4765427;29;45491;-77
2022/04/08 00:45:03;;;;;;;;;1.00;1.00;;;;;11.01;92.22;98807.47;4768849;29;45451;-76
2022/04/08 00:47:28;;;;;;;;;0.00;0.00;;;;;11.02;91.46;98801.28;4762919;29;45327;-76
2022/04/08 00:49:54;;;;;;;;;2.50;2.50;;;;;10.99;92.14;98797.91;4770134;29;46111;-76
2022/04/08 00:52:20;;;;;;;;;1.00;1.00;;;;;10.96;92.60;98793.63;4767223;29;45372;-76
2022/04/08 00:54:47;;;;;;;;;0.00;0.00;;;;;10.93;92.40;98791.13;4769323;29;45377;-76
2022/04/08 00:57:13;;;;;;;;;0.50;0.00;;;;;10.93;91.51;98787.63;4763200;29;45752;-76
2022/04/08 00:59:39;;;;;;;;;0.50;0.50;;;;;10.94;91.60;98784.06;4769212;29;46351;-76
2022/04/08 01:02:04;;;;;;;;;1.00;1.00;;;;;10.94;91.13;98778.81;4752280;29;45238;-76
2022/04/08 01:04:30;;;;;;;;;1.00;1.00;;;;;10.94;91.08;98784.94;4769520;29;45309;-76
2022/04/08 01:06:56;;;;;;;;;1.00;1.00;;;;;10.95;91.38;98778.72;4766101;29;45371;-76
2022/04/08 01:09:22;;;;;;;;;0.50;0.50;;;;;10.94;91.29;98770.88;4770175;29;46715;-76
2022/04/08 01:11:48;;;;;;;;;0.00;0.00;;;;;10.93;90.56;98767.41;4770084;29;45409;-76
2022/04/08 01:14:15;;;;;;;;;0.00;0.00;;;;;10.92;90.92;98770.09;4767707;29;45480;-76
2022/04/08 01:16:41;;;;;;;;;1.00;1.00;;;;;10.91;91.04;98765.75;4758974;29;45390;-76
2022/04/08 01:19:07;;;;;;;;;0.75;0.00;;;;;10.91;90.63;98755.19;4769083;29;46403;-76
2022/04/08 01:21:33;;;;;;;;;0.00;0.00;;;;;10.90;90.66;98756.97;4769847;29;45426;-76
2022/04/08 01:23:59;;;;;;;;;1.00;1.00;;;;;10.87;91.02;98754.53;4780956;29;45425;-76
2022/04/08 01:26:25;;;;;;;;;0.00;0.00;;;;;10.77;90.55;98750.59;4766107;29;45372;-76
2022/04/08 01:28:52;;;;;;;;;0.00;0.00;;;;;10.73;90.23;98755.13;4769755;29;46543;-76
2022/04/08 01:31:18;;;;;;;;;0.20;0.20;;;;;10.74;90.71;98750.72;4783100;29;45644;-77
2022/04/08 01:33:43;;;;;;;;;0.00;0.00;;;;;10.76;90.26;98751.50;4769830;29;45544;-76
2022/04/08 01:36:09;;;;;;;;;1.00;1.00;;;;;10.73;90.26;98752.50;4779343;29;45459;-76
2022/04/08 01:38:34;;;;;;;;;0.00;0.00;;;;;10.71;89.77;98745.63;4780367;29;46977;-76
2022/04/08 01:41:00;;;;;;;;;0.00;0.00;;;;;10.67;88.92;98744.03;4763503;29;45348;-76
2022/04/08 01:43:25;;;;;;;;;0.25;0.00;;;;;10.65;88.60;98743.25;4769705;29;45486;-76
2022/04/08 01:45:51;;;;;;;;;0.00;0.00;;;;;10.64;89.09;98745.03;4763335;29;45470;-76
2022/04/08 01:48:17;;;;;;;;;0.00;0.00;;;;;10.63;89.23;98739.84;4769266;29;46364;-76
2022/04/08 01:50:43;;;;;;;;;0.00;0.00;;;;;10.63;89.45;98729.28;4768989;29;45401;-76
2022/04/08 01:53:08;;;;;;;;;0.00;0.00;;;;;10.63;89.63;98727.50;4769474;29;45457;-76
2022/04/08 01:55:33;;;;;;;;;0.00;0.00;;;;;10.63;88.71;98727.50;4767531;29;45448;-76
2022/04/08 01:57:59;;;;;;;;;0.00;0.00;;;;;10.58;88.73;98724.22;4766225;29;47068;-76
2022/04/08 02:00:25;;;;;;;;;0.00;0.00;;;;;10.56;89.06;98726.06;4768217;29;45185;-76
2022/04/08 02:02:50;;;;;;;;;0.00;0.00;;;;;10.55;88.27;98723.53;4768741;29;45297;-76
2022/04/08 02:05:15;;;;;;;;;0.00;0.00;;;;;10.56;88.37;98726.06;4767709;29;45497;-76
2022/04/08 02:07:41;;;;;;;;;0.00;0.00;;;;;10.60;88.98;98703.91;4768738;29;46288;-77
2022/04/08 02:10:07;;;;;;;;;0.00;0.00;;;;;10.66;89.20;98708.06;4779694;29;45473;-76
2022/04/08 02:12:32;;;;;;;;;0.00;0.00;;;;;10.70;89.37;98713.13;4767722;29;45590;-76
2022/04/08 02:14:57;;;;;;;;;0.00;0.00;;;;;10.72;89.48;98713.91;4768359;29;45563;-76
2022/04/08 02:17:25;;;;;;;;;0.00;0.00;;;;;10.75;89.10;98705.81;4766722;29;46259;-76
2022/04/08 02:19:52;;;;;;;;;0.00;0.00;;;;;10.79;89.14;98710.03;4767776;29;45329;-76
2022/04/08 02:22:18;;;;;;;;;0.00;0.00;;;;;10.81;89.30;98695.00;4767954;29;45600;-76
2022/04/08 02:24:46;;;;;;;;;0.00;0.00;;;;;10.84;89.30;98708.03;4766697;29;45476;-77
2022/04/08 02:27:12;;;;;;;;;0.25;0.25;;;;;10.85;89.36;98693.09;4767727;29;46091;-76
2022/04/08 02:29:37;;;;;;;;;0.00;0.00;;;;;10.84;89.14;98688.72;4769054;29;45507;-76
2022/04/08 02:32:04;;;;;;;;;0.00;0.00;;;;;10.84;89.05;98699.28;4768962;29;45449;-76
2022/04/08 02:34:29;;;;;;;;;0.00;0.00;;;;;10.84;89.30;98686.94;4769039;29;45459;-76
2022/04/08 02:36:55;;;;;;;;;0.00;0.00;;;;;10.87;89.53;98685.94;4767698;29;45432;-76
2022/04/08 02:39:20;;;;;;;;;1.00;0.00;;;;;10.87;89.71;98687.72;4768980;29;45383;-76
2022/04/08 02:41:46;;;;;;;;;0.00;0.00;;;;;10.88;88.92;98687.66;4768872;29;45513;-76
2022/04/08 02:44:11;;;;;;;;;0.00;0.00;;;;;10.85;88.04;98682.53;4769117;29;45640;-76
2022/04/08 02:46:37;;;;;;;;;0.00;0.00;;;;;10.82;88.70;98675.63;4756146;29;45511;-76
2022/04/08 02:49:02;;;;;;;;;0.00;0.00;;;;;10.83;89.93;98677.31;4768963;29;45329;-76
2022/04/08 02:51:28;;;;;;;;;0.00;0.00;;;;;10.86;89.74;98676.34;4771580;29;45455;-76
2022/04/08 02:53:54;;;;;;;;;0.00;0.00;;;;;10.88;90.03;98660.44;4760922;29;45374;-76
2022/04/08 02:56:20;;;;;;;;;0.00;0.00;;;;;10.90;89.97;98662.03;4768319;29;45667;-76
2022/04/08 02:58:48;;;;;;;;;0.75;0.00;;;;;10.93;90.29;98661.03;4769222;29;45380;-77
2022/04/08 03:01:17;;;;;;;;;0.00;0.00;;;;;10.94;90.12;98654.84;4768213;29;45489;-76
2022/04/08 03:03:42;;;;;;;;;0.00;0.00;;;;;10.93;90.11;98659.25;4768871;29;45457;-76
2022/04/08 03:06:07;;;;;;;;;0.00;0.00;;;;;10.91;90.41;98653.22;4761063;29;46408;-76
2022/04/08 03:08:34;;;;;;;;;0.75;0.00;;;;;10.91;90.19;98647.94;4768715;29;45358;-76
2022/04/08 03:11:00;;;;;;;;;0.00;0.00;;;;;10.90;90.11;98643.59;4765052;29;45498;-76
2022/04/08 03:13:25;;;;;;;;;0.50;0.50;;;;;10.92;90.82;98639.09;4770741;29;45627;-76
2022/04/08 03:15:51;;;;;;;;;1.00;0.25;;;;;10.93;90.68;98640.81;4771082;29;45885;-76
2022/04/08 03:18:16;;;;;;;;;3.00;1.00;;;;;10.94;90.62;98642.50;4771664;29;45512;-76
2022/04/08 03:20:42;;;;;;;;;0.00;0.00;;;;;10.94;90.64;98641.66;4785207;29;47453;-76
2022/04/08 03:23:07;;;;;;;;;0.00;0.00;;;;;10.92;90.34;98623.28;4771710;29;45506;-76
2022/04/08 03:25:33;;;;;;;;;0.00;0.00;;;;;10.90;90.17;98629.53;4771237;29;45493;-76
2022/04/08 03:27:58;;;;;;;;;0.00;0.00;;;;;10.90;89.42;98616.34;4771531;29;45439;-76
2022/04/08 03:30:27;;;;;;;;;2.50;0.00;;;;;10.90;89.78;98613.72;4771201;29;45575;-76
2022/04/08 03:32:53;;;;;;;;;0.75;0.00;;;;;10.91;89.95;98613.66;4770911;29;45364;-76
2022/04/08 03:35:18;;;;;;;;;2.00;2.00;;;;;10.94;90.54;98616.13;4770181;29;45394;-76
2022/04/08 03:37:44;;;;;;;;;0.00;0.00;;;;;10.96;90.52;98602.88;4766279;29;45240;-76
2022/04/08 03:40:10;;;;;;;;;0.00;0.00;;;;;10.96;90.35;98611.66;4771290;29;45366;-76
2022/04/08 03:42:36;;;;;;;;;1.00;1.00;;;;;10.98;90.77;98606.28;4770403;29;45746;-76
2022/04/08 03:45:01;;;;;;;;;1.00;1.00;;;;;10.99;90.69;98600.94;4770654;29;46223;-76
2022/04/08 03:47:26;;;;;;;;;0.00;0.00;;;;;10.99;90.51;98597.47;4762723;29;45773;-76
2022/04/08 03:49:52;;;;;;;;;0.00;0.00;;;;;10.96;90.66;98597.59;4770570;29;45556;-77
2022/04/08 03:52:17;;;;;;;;;0.00;0.00;;;;;10.93;90.88;98595.97;4766501;29;45563;-76
2022/04/08 03:54:43;;;;;;;;;0.00;0.00;;;;;10.93;91.13;98592.47;4769702;29;46566;-76
2022/04/08 03:57:08;;;;;;;;;0.00;0.00;;;;;10.94;91.01;98584.50;4768989;29;45434;-76
2022/04/08 03:59:34;;;;;;;;;3.00;2.25;;;;;10.95;91.61;98591.47;4771010;29;45395;-76
2022/04/08 04:02:01;;;;;;;;;1.50;1.50;;;;;10.95;91.59;98580.94;4770640;29;45437;-76
2022/04/08 04:04:27;;;;;;;;;3.75;3.75;;;;;10.96;91.05;98579.16;4769446;29;47540;-76
2022/04/08 04:06:53;;;;;;;;;1.00;1.00;;;;;10.94;91.15;98579.22;4768422;29;45490;-76
2022/04/08 04:09:19;;;;;;;;;1.00;1.00;;;;;10.92;91.00;98582.84;4771104;29;45513;-76
2022/04/08 04:11:44;;;;;;;;;3.00;2.00;;;;;10.89;91.19;98580.41;4770682;29;45522;-76
2022/04/08 04:14:09;;;;;;;;;1.25;1.00;;;;;10.85;91.11;98584.97;4770565;29;46156;-76
2022/04/08 04:16:35;;;;;;;;;1.50;1.50;;;;;10.81;90.59;98596.59;4766120;29;45430;-76
2022/04/08 04:19:01;;;;;;;;;3.00;1.00;;;;;10.80;90.59;98597.50;4784201;29;45961;-76
2022/04/08 04:21:26;;;;;;;;;0.75;0.00;;;;;10.79;90.42;98580.84;4769759;29;45513;-76
2022/04/08 04:23:52;;;;;;;;;2.50;2.50;;;;;10.76;90.69;98577.50;4770616;29;45886;-77
2022/04/08 04:26:17;;;;;;;;;0.00;0.00;;;;;10.76;89.75;98575.72;4770413;29;45408;-76
2022/04/08 04:28:43;;;;;;;;;1.00;1.00;;;;;10.80;89.53;98579.06;4770901;29;45974;-76
2022/04/08 04:31:08;;;;;;;;;2.00;0.00;;;;;10.82;89.67;98575.41;4769973;29;45498;-76
2022/04/08 04:33:34;;;;;;;;;1.00;1.00;;;;;10.84;90.30;98576.19;4770327;29;46420;-76
2022/04/08 04:36:00;;;;;;;;;3.00;1.00;;;;;10.83;89.93;98565.72;4769231;29;45413;-76
2022/04/08 04:38:26;;;;;;;;;1.00;1.00;;;;;10.84;90.79;98575.34;4769171;29;45371;-76
2022/04/08 04:40:52;;;;;;;;;2.25;2.25;;;;;10.84;90.57;98567.44;4783131;29;45670;-76
2022/04/08 04:43:17;;;;;;;;;1.00;1.00;;;;;10.89;89.67;98572.50;4770392;29;45348;-76
2022/04/08 04:45:43;;;;;;;;;0.00;0.00;;;;;10.92;90.09;98564.41;4769091;29;45371;-76
2022/04/08 04:48:13;;;;;;;;;1.00;1.00;;;;;10.92;91.20;98572.31;4769996;29;45497;-76
2022/04/08 04:50:39;;;;;;;;;0.00;0.00;;;;;10.92;89.46;98577.59;4769091;29;45497;-77
2022/04/08 04:53:05;;;;;;;;;1.00;1.00;;;;;10.92;90.54;98561.75;4769864;29;46228;-76
2022/04/08 04:55:30;;;;;;;;;1.00;1.00;;;;;10.95;90.02;98564.25;4766866;29;45343;-76
2022/04/08 04:57:56;;;;;;;;;0.25;0.25;;;;;10.95;89.86;98565.09;4770057;29;45345;-76
2022/04/08 05:00:22;;;;;;;;;0.75;0.75;;;;;10.96;89.70;98571.22;4767078;29;45548;-76
2022/04/08 05:02:47;;;;;;;;;0.00;0.00;;;;;10.97;89.04;98554.47;4761356;29;46201;-76
2022/04/08 05:05:14;;;;;;;;;1.25;1.00;;;;;10.99;88.89;98561.38;4769672;29;45387;-76
2022/04/08 05:07:40;;;;;;;;;2.00;2.00;;;;;11.02;90.21;98553.31;4769283;29;45505;-76
2022/04/08 05:10:06;;;;;;;;;2.00;2.00;;;;;11.04;90.45;98562.00;4764987;29;45370;-76
2022/04/08 05:12:32;;;;;;;;;1.00;1.00;;;;;11.05;90.06;98563.72;4769517;29;45524;-76
2022/04/08 05:14:58;;;;;;;;;1.00;1.00;;;;;11.06;89.76;98554.03;4769377;29;45704;-76
2022/04/08 05:17:23;;;;;;;;;0.00;0.00;;;;;11.06;88.28;98554.03;4782646;29;45405;-76
2022/04/08 05:19:49;;;;;;;;;1.00;0.50;;;;;11.07;88.91;98553.06;4767534;29;45554;-76
2022/04/08 05:22:14;;;;;;;;;0.00;0.00;;;;;11.11;88.51;98549.34;4766696;29;47855;-76
2022/04/08 05:24:40;;;;;;;;;2.50;2.00;;;;;11.13;89.52;98545.69;4780338;29;45454;-76
2022/04/08 05:27:08;;;;;;;;;1.75;1.25;;;;;11.16;89.62;98555.25;4767500;29;45497;-76
2022/04/08 05:29:34;;;;;;;;;3.00;2.75;;;;;11.18;89.15;98548.97;4780355;29;45479;-76
2022/04/08 05:31:59;;;;;;;;;1.25;1.25;;;;;11.22;88.47;98554.09;4763026;29;45392;-71
2022/04/08 05:34:27;;;;;;;;;1.25;1.25;;;;;11.29;88.43;98553.69;4768438;29;45407;-71
2022/04/08 05:36:52;;;;;;;;;1.00;1.00;;;;;11.36;88.80;98562.13;4768520;29;45441;-69
2022/04/08 05:39:18;;;;;;;;;3.00;3.00;;;;;11.40;89.32;98561.03;4781723;29;45413;-69
2022/04/08 05:41:43;;;;;;;;;0.75;0.75;;;;;11.43;89.20;98558.22;4769425;29;46226;-69
2022/04/08 05:44:08;;;;;;;;;1.00;1.00;;;;;11.45;89.26;98570.41;4768853;29;45480;-70
2022/04/08 05:46:35;;;;;;;;;3.00;1.00;;;;;11.49;89.21;98579.03;4758819;29;45442;-70
2022/04/08 05:49:00;;;;;;;;;2.75;2.25;;;;;11.52;89.83;98566.53;4768714;29;45398;-70
2022/04/08 05:51:25;;;;;;;;;2.00;1.00;;;;;11.56;89.54;98574.28;4768562;29;46160;-70
2022/04/08 05:53:51;;;;;;;;;2.00;1.50;;;;;11.57;89.72;98574.19;4768888;29;45429;-70
2022/04/08 05:56:16;;;;;;;;;1.50;1.50;;;;;11.61;88.86;98572.25;4768126;29;45867;-70
2022/04/08 05:58:41;;;;;;;;;1.75;1.75;;;;;11.63;88.64;98571.22;4768832;29;45438;-70
2022/04/08 06:01:07;;;;;;;;;3.25;3.25;;;;;11.65;89.11;98573.78;4768010;29;45535;-70
2022/04/08 06:03:32;;;;;;;;;2.00;2.00;;;;;11.66;88.81;98575.50;4768622;29;45373;-70
2022/04/08 06:05:58;;;;;;;;;1.25;1.25;;;;;11.69;88.62;98580.63;4778162;29;45416;-70
2022/04/08 06:08:23;;;;;;;;;2.00;2.00;;;;;11.70;88.89;98571.78;4767410;29;45542;-70
2022/04/08 06:10:49;;;;;;;;;3.00;1.00;;;;;11.70;88.36;98567.34;4766503;29;45742;-70
2022/04/08 06:13:16;;;;;;;;;2.75;2.75;;;;;11.69;88.88;98583.25;4768635;29;45451;-70
2022/04/08 06:15:42;;;;;;;;;1.25;1.25;;;;;11.67;89.00;98572.78;4768350;29;45510;-70
2022/04/08 06:18:09;;;;;;;;;2.00;2.00;;;;;11.70;89.06;98582.34;4767401;29;45367;-70
2022/04/08 06:20:35;;;;;;;;;2.00;2.00;;;;;11.71;89.22;98576.13;4765862;29;46618;-69
2022/04/08 06:23:00;;;;;;;;;3.00;2.00;;;;;11.72;89.03;98573.41;4768744;29;45340;-70
2022/04/08 06:25:25;;;;;;;;;1.00;1.00;;;;;11.72;88.93;98577.81;4768179;29;45351;-70
2022/04/08 06:28:04;;;;;;;;;2.75;2.75;;;;;11.73;89.18;98572.44;4767845;29;45493;-70
2022/04/08 06:30:35;;;;;;;;;5.00;3.00;;;;;11.74;89.24;98587.34;4767701;29;45554;-70
2022/04/08 06:33:01;;;;;;;;;4.00;3.00;;;;;11.75;89.24;98575.00;4760540;29;45443;-70
2022/04/08 06:35:26;;;;;;;;;4.50;3.25;;;;;11.76;89.35;98585.50;4781789;29;45356;-70
2022/04/08 06:37:58;;;;;;;;;6.75;5.75;;;;;11.77;89.05;98589.88;4762744;29;45372;-71
2022/04/08 06:40:24;;;;;;;;;4.25;4.00;;;;;11.76;89.41;98587.31;4760621;29;45797;-71
2022/04/08 06:42:55;;;;;;;;;3.00;3.00;;;;;11.73;89.83;98587.47;4762860;29;45438;-71
2022/04/08 06:45:21;;;;;;;;;6.50;6.00;;;;;11.72;89.93;98583.09;4769191;29;45472;-70
2022/04/08 06:47:48;;;;;;;;;4.50;4.00;;;;;11.71;89.56;98587.53;4768234;29;45427;-70
2022/04/08 06:50:14;;;;;;;;;3.75;3.75;;;;;11.68;89.94;98585.06;4771091;29;45508;-71
2022/04/08 06:52:40;;;;;;;;;5.80;4.20;;;;;11.66;89.99;98580.78;4769693;29;45466;-71
2022/04/08 06:55:06;;;;;;;;;7.25;7.00;;;;;11.67;89.97;98569.28;4778576;29;45490;-71
2022/04/08 06:57:32;;;;;;;;;6.25;6.25;;;;;11.70;90.25;98572.63;4784853;29;45668;-72
2022/04/08 06:59:57;;;;;;;;;6.25;6.00;;;;;11.72;90.44;98570.75;4784093;29;47954;-72
2022/04/08 07:02:22;;;;;;;;;6.75;5.50;;;;;11.76;90.65;98572.31;4770991;29;45457;-71
2022/04/08 07:04:48;;;;;;;;;6.25;3.00;;;;;11.82;89.60;98569.34;4769395;29;46045;-72
2022/04/08 07:07:14;;;;;;;;;2.00;2.00;;;;;11.86;88.93;98565.63;4767871;29;45495;-73
2022/04/08 07:09:39;;;;;;;;;3.00;3.00;;;;;11.90;89.31;98558.34;4769913;29;45444;-72
2022/04/08 07:12:05;;;;;;;;;3.00;2.25;;;;;11.95;88.92;98568.69;4767823;29;45568;-72
2022/04/08 07:14:30;;;;;;;;;4.00;4.00;;;;;11.98;89.13;98569.38;4785147;29;45407;-72
2022/04/08 07:16:56;;;;;;;;;2.00;2.00;;;;;12.00;88.29;98550.78;4767863;29;45355;-72
2022/04/08 07:19:21;;;;;;;;;2.00;2.00;;;;;12.01;87.82;98552.50;4771092;29;46476;-72
2022/04/08 07:21:47;;;;;;;;;2.50;2.25;;;;;12.05;88.28;98549.63;4771242;29;45512;-72
2022/04/08 07:24:12;;;;;;;;;1.50;1.00;;;;;12.08;87.62;98545.94;4768027;29;45662;-73
2022/04/08 07:26:38;;;;;;;;;2.00;2.00;;;;;12.09;87.34;98550.28;4763707;29;45493;-73
2022/04/08 07:29:03;;;;;;;;;2.00;2.00;;;;;12.10;87.76;98547.56;4770676;29;46367;-72
2022/04/08 07:31:29;;;;;;;;;4.00;1.00;;;;;12.14;87.83;98533.25;4777850;29;45444;-72
2022/04/08 07:33:54;;;;;;;;;3.00;3.00;;;;;12.19;88.06;98512.69;4770968;29;45458;-73
2022/04/08 07:36:20;;;;;;;;;4.75;4.75;;;;;12.22;88.42;98507.25;4759475;29;45426;-73
2022/04/08 07:38:45;;;;;;;;;5.25;5.25;;;;;12.23;88.20;98514.22;4770204;29;46285;-73
2022/04/08 07:41:10;;;;;;;;;4.50;4.50;;;;;12.24;88.19;98541.50;4758047;29;45373;-72
2022/04/08 07:43:36;;;;;;;;;8.25;6.25;;;;;12.24;88.32;98538.84;4770709;29;45364;-72
2022/04/08 07:46:01;;;;;;;;;7.00;4.50;;;;;12.23;87.95;98539.81;4781806;29;45789;-72
2022/04/08 07:48:27;;;;;;;;;6.25;6.25;;;;;12.25;88.58;98524.69;4770632;29;45463;-73
2022/04/08 07:50:54;;;;;;;;;9.00;5.60;;;;;12.27;88.76;98533.41;4763985;29;45490;-73
2022/04/08 07:53:19;;;;;;;;;6.75;6.00;;;;;12.31;88.58;98542.88;4766412;29;45360;-73
2022/04/08 07:55:45;;;;;;;;;43.33;36.00;;;;;12.34;88.32;98526.00;4761293;29;45549;-73
2022/04/08 07:58:10;;;;;;;;;10.00;9.25;;;;;12.35;87.87;98527.69;4770177;29;45801;-74
2022/04/08 08:00:36;;;;;;;;;10.00;8.00;;;;;12.38;88.43;98532.81;4783426;29;45368;-73
2022/04/08 08:03:01;;;;;;;;;7.75;7.00;;;;;12.42;88.70;98531.66;4770154;29;45266;-73
2022/04/08 08:05:27;;;;;;;;;12.50;11.00;;;;;12.42;88.11;98527.25;4769423;29;45466;-73
2022/04/08 08:07:57;;;;;;;;;9.25;9.25;;;;;12.40;88.42;98530.94;4770012;29;46417;-73
2022/04/08 08:10:28;;;;;;;;;20.50;16.75;;;;;12.40;88.91;98533.56;4770121;29;45327;-73
2022/04/08 08:12:55;;;;;;;;;9.75;6.25;;;;;12.40;89.00;98537.03;4770113;29;45438;-73
2022/04/08 08:15:22;;;;;;;;;9.50;9.50;;;;;12.41;89.22;98533.47;4769665;29;45584;-73
2022/04/08 08:17:49;;;;;;;;;11.25;11.25;;;;;12.44;89.33;98538.59;4773418;29;46006;-73
2022/04/08 08:20:16;;;;;;;;;15.25;14.50;;;;;12.49;88.83;98556.84;4771725;29;45527;-73
2022/04/08 08:22:41;;;;;;;;;12.00;10.50;;;;;12.54;88.55;98560.09;4769978;29;45391;-73
2022/04/08 08:25:08;;;;;;;;;10.00;8.50;;;;;12.57;88.35;98565.16;4768899;29;45433;-73
2022/04/08 08:27:42;;;;;;;;;8.75;6.75;;;;;12.62;88.17;98568.41;4770022;29;45505;-73
2022/04/08 08:30:12;;;;;;;;;8.75;7.50;;;;;12.67;88.23;98576.94;4768424;29;45524;-73
2022/04/08 08:32:39;;;;;;;;;11.75;11.75;;;;;12.71;88.32;98570.53;4769437;29;45545;-73
2022/04/08 08:35:08;;;;;;;;;12.50;12.25;;;;;12.72;87.58;98564.31;4769551;29;45457;-73
2022/04/08 08:37:34;;;;;;;;;8.75;7.00;;;;;12.72;87.75;98553.75;4783159;29;46846;-70
2022/04/08 08:39:59;;;;;;;;;12.50;12.00;;;;;12.76;87.86;98551.75;4766448;29;45491;-70
2022/04/08 08:42:25;;;;;;;;;14.75;12.00;;;;;12.80;87.13;98559.41;4764884;29;46044;-70
2022/04/08 08:44:52;;;;;;;;;11.00;11.00;;;;;12.87;87.65;98546.69;4768270;29;45565;-70
2022/04/08 08:47:18;;;;;;;;;14.25;12.75;;;;;12.97;87.90;98550.50;4766866;29;45431;-71
2022/04/08 08:49:48;;;;;;;;;11.25;9.75;;;;;13.08;87.77;98552.50;4768134;29;45532;-70
2022/04/08 08:52:14;;;;;;;;;6.00;6.00;;;;;13.18;86.36;98557.22;4777351;29;45432;-70
2022/04/08 08:54:40;;;;;;;;;6.75;6.00;;;;;13.27;85.92;98558.44;4768069;29;45367;-69
2022/04/08 08:57:09;;;;;;;;;5.75;5.00;;;;;13.38;86.13;98555.16;4776608;29;45621;-68
2022/04/08 08:59:36;;;;;;;;;5.75;5.00;;;;;13.48;85.76;98556.28;4780394;29;45331;-70
2022/04/08 09:02:03;;;;;;;;;7.50;6.00;;;;;13.57;85.53;98551.28;4768701;29;45551;-68
2022/04/08 09:04:29;;;;;;;;;6.75;5.75;;;;;13.68;85.41;98550.63;4769050;29;45452;-69
2022/04/08 09:06:55;;;;;;;;;5.00;5.00;;;;;13.81;85.06;98558.66;4768034;29;45501;-69
2022/04/08 09:09:32;;;;;;;;;14.75;12.75;;;;;13.90;84.82;98548.38;4768408;29;45368;-69
2022/04/08 09:12:14;;;;;;;;;8.25;8.25;;;;;14.01;84.81;98560.94;4766966;29;45501;-68
2022/04/08 09:14:48;;;;;;;;;12.25;10.00;;;;;14.11;84.48;98558.53;4768535;29;45604;-70
2022/04/08 09:17:16;;;;;;;;;14.00;11.00;;;;;14.14;84.39;98563.66;4768820;29;46509;-68
2022/04/08 09:19:41;;;;;;;;;12.25;11.50;;;;;14.18;84.95;98555.41;4768703;29;45460;-68
2022/04/08 09:22:09;;;;;;;;;14.50;13.50;;;;;14.25;85.15;98555.84;4768858;29;45295;-68
2022/04/08 09:24:35;;;;;;;;;15.75;14.75;;;;;14.31;84.72;98556.31;4768684;29;45576;-68
2022/04/08 09:27:01;;;;;;;;;19.00;17.75;;;;;14.36;84.76;98542.78;4768888;29;46500;-68
2022/04/08 09:29:27;;;;;;;;;16.50;15.25;;;;;14.41;84.72;98553.13;4768459;29;45427;-68
2022/04/08 09:31:55;;;;;;;;;24.25;22.25;;;;;14.38;85.03;98548.84;4768328;29;45444;-69
2022/04/08 09:34:22;;;;;;;;;26.50;24.00;;;;;14.40;84.85;98544.31;4768572;29;45343;-72
2022/04/08 09:36:47;;;;;;;;;20.50;20.25;;;;;14.41;84.62;98546.00;4768130;29;46598;-70
2022/04/08 09:39:13;;;;;;;;;19.50;18.75;;;;;14.41;84.32;98553.94;4768696;29;45402;-71
2022/04/08 09:41:44;;;;;;;;;19.25;18.00;;;;;14.37;84.45;98539.19;4768536;29;45498;-70
2022/04/08 09:44:12;;;;;;;;;19.50;18.25;;;;;14.38;84.26;98543.53;4768066;29;45483;-70
2022/04/08 09:46:39;;;;;;;;;16.75;14.25;;;;;14.37;83.75;98547.13;4768313;29;45450;-70
2022/04/08 09:49:06;;;;;;;;;13.25;13.00;;;;;14.38;84.23;98545.34;4768446;29;45413;-70
2022/04/08 09:51:41;;;;;;;;;19.50;16.00;;;;;14.42;84.39;98544.19;4768755;29;45473;-70
2022/04/08 09:54:12;;;;;;;;;45.00;37.67;;;;;14.52;84.59;98529.41;4765983;29;45444;-70
2022/04/08 09:56:38;;;;;;;;;17.00;14.00;;;;;14.57;84.02;98530.81;4767654;29;45507;-69
2022/04/08 09:59:14;;;;;;;;;16.75;15.50;;;;;14.62;83.90;98535.78;4781419;29;45394;-69
2022/04/08 10:01:44;;;;;;;;;20.50;17.25;;;;;14.68;83.61;98534.53;4768189;29;45377;-70
2022/04/08 10:04:10;;;;;;;;;21.00;19.00;;;;;14.73;82.97;98537.75;4781090;29;45461;-70
2022/04/08 10:06:40;;;;;;;;;20.50;17.25;;;;;14.68;82.29;98535.41;4768138;29;46270;-70
2022/04/08 10:09:08;;;;;;;;;17.50;15.25;;;;;14.65;83.07;98535.59;4768445;29;45369;-70
2022/04/08 10:11:45;;;;;;;;;19.50;17.50;;;;;14.68;82.68;98532.75;4768449;29;45521;-70
2022/04/08 10:14:25;;;;;;;;;14.00;14.00;;;;;14.67;82.41;98531.03;4767909;29;45352;-70
2022/04/08 10:16:53;;;;;;;;;17.50;16.50;;;;;14.70;82.33;98535.28;4766332;29;47885;-70
2022/04/08 10:19:21;;;;;;;;;21.00;20.25;;;;;14.73;81.29;98522.69;4762785;29;45522;-70
2022/04/08 10:21:54;;;;;;;;;25.25;21.50;;;;;14.80;81.01;98510.69;4766371;29;45476;-71
2022/04/08 10:24:32;;;;;;;;;17.75;17.00;;;;;14.77;81.27;98508.22;4781944;29;45398;-72
2022/04/08 10:27:09;;;;;;;;;11.25;11.25;;;;;14.71;80.43;98513.13;4771231;29;45591;-71
2022/04/08 10:29:36;;;;;;;;;6.00;6.00;;;;;14.73;79.26;98508.56;4771305;29;45438;-72
2022/04/08 10:32:04;;;;;;;;;16.50;15.25;;;;;14.75;80.84;98493.38;4784248;29;45492;-72
2022/04/08 10:34:32;;;;;;;;;16.50;16.50;;;;;14.75;81.01;98496.88;4771455;29;45367;-71
2022/04/08 10:37:00;;;;;;;;;14.75;14.00;;;;;14.74;81.61;98486.38;4781490;29;46427;-69
2022/04/08 10:39:26;;;;;;;;;17.50;15.50;;;;;14.76;81.78;98487.09;4782189;29;45456;-71
2022/04/08 10:42:00;;;;;;;;;20.00;17.00;;;;;14.76;82.01;98485.31;4770590;29;45456;-68
2022/04/08 10:44:39;;;;;;;;;22.00;20.25;;;;;14.73;82.18;98482.88;4769581;29;45485;-67
2022/04/08 10:47:20;;;;;;;;;10.25;10.25;;;;;14.75;81.62;98480.09;4769838;29;45592;-67
2022/04/08 10:50:00;;;;;;;;;19.00;16.75;;;;;14.76;82.00;98480.00;4771298;29;45471;-68
2022/04/08 10:52:27;;;;;;;;;13.50;11.50;;;;;14.74;80.77;98466.00;4770830;29;45452;-70
2022/04/08 10:55:04;;;;;;;;;13.00;13.00;;;;;14.72;81.34;98465.25;4771113;29;45422;-67
2022/04/08 10:57:38;;;;;;;;;6.50;6.00;;;;;14.75;80.44;98458.88;4771257;29;45534;-69
2022/04/08 11:00:11;;;;;;;;;4.60;4.60;;;;;14.76;80.10;98466.72;4769698;29;45481;-70
2022/04/08 11:02:39;;;;;;;;;9.25;7.25;;;;;14.77;80.02;98457.81;4770793;29;45387;-67
2022/04/08 11:05:07;;;;;;;;;10.25;10.00;;;;;14.76;80.35;98468.53;4781752;29;45469;-67
2022/04/08 11:07:32;;;;;;;;;10.25;9.75;;;;;14.73;80.33;98459.00;4767957;29;45609;-67
2022/04/08 11:09:59;;;;;;;;;10.25;10.00;;;;;14.70;80.21;98459.22;4770962;29;45627;-67
2022/04/08 11:12:25;;;;;;;;;13.00;12.50;;;;;14.68;80.60;98453.16;4770643;29;45443;-67
2022/04/08 11:14:55;;;;;;;;;9.00;9.00;;;;;14.63;80.64;98445.50;4770636;29;45443;-68
2022/04/08 11:17:21;;;;;;;;;8.50;7.75;;;;;14.60;80.16;98460.75;4770565;29;45478;-67
2022/04/08 11:19:50;;;;;;;;;11.25;8.00;;;;;14.57;80.56;98461.00;4770006;29;45331;-68
2022/04/08 11:22:15;;;;;;;;;12.00;11.00;;;;;14.55;81.07;98461.09;4770366;29;45510;-69
2022/04/08 11:24:41;;;;;;;;;14.75;11.75;;;;;14.51;81.40;98451.63;4771098;29;45581;-70
2022/04/08 11:27:07;;;;;;;;;16.00;15.50;;;;;14.48;82.01;98448.31;4769783;29;46217;-69